createdAt,value
2023-05-17T00:01:47.213Z,94490.78
2023-05-17T00:04:14.033Z,94491.59
2023-05-17T00:06:41.320Z,94486.38
2023-05-17T00:09:08.786Z,94501.28
2023-05-17T00:11:35.548Z,94490.44
2023-05-17T00:14:02.432Z,94501.91
2023-05-17T00:16:29.119Z,94490.44
2023-05-17T00:18:55.908Z,94489.31
2023-05-17T00:21:22.697Z,94501.09
2023-05-17T00:23:49.395Z,94482.09
2023-05-17T00:26:16.104Z,94496.38
2023-05-17T00:28:43.242Z,94491.66
2023-05-17T00:31:09.932Z,94499.03
2023-05-17T00:33:36.799Z,94498.88
2023-05-17T00:36:03.785Z,94501.56
2023-05-17T00:38:30.566Z,94503.44
2023-05-17T00:40:57.347Z,94505.72
2023-05-17T00:43:26.102Z,94494.47
2023-05-17T00:45:52.848Z,94501.50
2023-05-17T00:48:21.377Z,94513.63
2023-05-17T00:50:49.275Z,94506.91
2023-05-17T00:53:16.506Z,94495.06
2023-05-17T00:55:44.394Z,94500.59
2023-05-17T00:58:15.126Z,94509.69
2023-05-17T01:00:43.423Z,94502.47
2023-05-17T01:03:11.679Z,94500.88
2023-05-17T01:05:38.853Z,94508.22
2023-05-17T01:08:05.856Z,94509.06
2023-05-17T01:11:07.676Z,94522.28
2023-05-17T01:13:42.520Z,94515.69
2023-05-17T01:16:27.549Z,94516.00
2023-05-17T01:19:09.641Z,94532.16
2023-05-17T01:21:51.563Z,94536.84
2023-05-17T01:24:33.781Z,94539.81
2023-05-17T01:27:05.102Z,94533.81
2023-05-17T01:29:35.393Z,94538.66
2023-05-17T01:32:05.127Z,94543.69
2023-05-17T01:34:32.347Z,94555.16
2023-05-17T01:37:00.204Z,94547.25
2023-05-17T01:39:28.387Z,94557.28
2023-05-17T01:42:18.754Z,94562.47
2023-05-17T01:44:50.918Z,94560.88
2023-05-17T01:47:53.424Z,94560.69
2023-05-17T01:50:24.266Z,94567.63
2023-05-17T01:52:59.488Z,94561.13
2023-05-17T01:55:35.537Z,94564.78
2023-05-17T01:58:06.309Z,94565.56
2023-05-17T02:00:33.531Z,94567.25
2023-05-17T02:03:00.586Z,94553.44
2023-05-17T02:05:27.543Z,94558.97
2023-05-17T02:07:54.479Z,94554.72
2023-05-17T02:10:21.356Z,94543.97
2023-05-17T02:12:48.030Z,94565.50
2023-05-17T02:15:16.665Z,94558.56
2023-05-17T02:17:43.497Z,94553.34
2023-05-17T02:20:11.751Z,94559.13
2023-05-17T02:22:39.094Z,94558.91
2023-05-17T02:25:07.006Z,94560.91
2023-05-17T02:27:33.768Z,94558.22
2023-05-17T02:30:02.138Z,94557.25
2023-05-17T02:32:29.252Z,94554.69
2023-05-17T02:34:56.328Z,94553.53
2023-05-17T02:37:23.430Z,94560.53
2023-05-17T02:39:50.154Z,94562.91
2023-05-17T02:42:17.183Z,94553.31
2023-05-17T02:44:44.004Z,94553.13
2023-05-17T02:47:10.844Z,94559.63
2023-05-17T02:49:37.576Z,94558.38
2023-05-17T02:52:04.654Z,94560.56
2023-05-17T02:54:31.364Z,94556.31
2023-05-17T02:56:58.114Z,94561.81
2023-05-17T02:59:24.798Z,94564.19
2023-05-17T03:01:51.533Z,94556.41
2023-05-17T03:04:20.372Z,94565.00
2023-05-17T03:06:47.342Z,94576.53
2023-05-17T03:09:14.322Z,94572.28
2023-05-17T03:11:42.094Z,94578.19
2023-05-17T03:14:16.656Z,94571.91
2023-05-17T03:16:43.468Z,94582.84
2023-05-17T03:19:10.353Z,94574.84
2023-05-17T03:21:37.955Z,94569.72
2023-05-17T03:24:05.524Z,94561.22
2023-05-17T03:26:33.497Z,94580.94
2023-05-17T03:29:00.265Z,94581.31
2023-05-17T03:31:27.557Z,94578.44
2023-05-17T03:33:54.469Z,94579.34
2023-05-17T03:36:21.942Z,94575.88
2023-05-17T03:38:48.791Z,94585.97
2023-05-17T03:41:16.175Z,94584.66
2023-05-17T03:43:43.008Z,94581.13
2023-05-17T03:46:12.239Z,94585.44
2023-05-17T03:48:39.002Z,94589.69
2023-05-17T03:51:06.044Z,94590.75
2023-05-17T03:53:33.640Z,94576.81
2023-05-17T03:56:01.365Z,94580.38
2023-05-17T03:58:28.783Z,94590.91
2023-05-17T04:00:55.485Z,94601.91
2023-05-17T04:03:22.151Z,94607.06
2023-05-17T04:05:48.926Z,94593.25
2023-05-17T04:08:15.636Z,94611.78
2023-05-17T04:10:42.483Z,94618.31
2023-05-17T04:13:09.710Z,94617.53
2023-05-17T04:15:37.783Z,94618.03
2023-05-17T04:18:05.858Z,94614.78
2023-05-17T04:20:32.691Z,94604.72
2023-05-17T04:23:00.130Z,94611.34
2023-05-17T04:25:30.134Z,94613.81
2023-05-17T04:27:57.131Z,94614.31
2023-05-17T04:30:24.276Z,94612.22
2023-05-17T04:32:51.080Z,94621.22
2023-05-17T04:35:17.842Z,94625.38
2023-05-17T04:37:48.165Z,94629.56
2023-05-17T04:40:20.566Z,94622.44
2023-05-17T04:42:47.825Z,94617.53
2023-05-17T04:45:15.558Z,94616.91
2023-05-17T04:47:42.800Z,94631.81
2023-05-17T04:50:09.569Z,94624.06
2023-05-17T04:52:36.710Z,94636.44
2023-05-17T04:55:05.257Z,94645.09
2023-05-17T04:57:31.967Z,94640.75
2023-05-17T05:00:10.264Z,94634.84
2023-05-17T05:02:40.252Z,94650.97
2023-05-17T05:05:09.502Z,94651.34
2023-05-17T05:07:36.743Z,94650.56
2023-05-17T05:10:04.044Z,94656.78
2023-05-17T05:12:30.712Z,94655.41
2023-05-17T05:14:59.042Z,94663.50
2023-05-17T05:17:27.133Z,94656.38
2023-05-17T05:19:53.993Z,94672.56
2023-05-17T05:22:20.879Z,94664.50
2023-05-17T05:24:47.539Z,94679.63
2023-05-17T05:27:14.547Z,94673.44
2023-05-17T05:29:42.731Z,94674.31
2023-05-17T05:32:11.118Z,94683.16
2023-05-17T05:34:45.813Z,94680.25
2023-05-17T05:37:13.378Z,94679.97
2023-05-17T05:39:40.208Z,94668.00
2023-05-17T05:42:09.128Z,94681.47
2023-05-17T05:44:35.809Z,94684.44
2023-05-17T05:47:02.593Z,94669.38
2023-05-17T05:49:29.909Z,94683.84
2023-05-17T05:51:56.727Z,94695.97
2023-05-17T05:54:25.568Z,94691.84
2023-05-17T05:56:52.561Z,94702.56
2023-05-17T05:59:20.789Z,94697.53
2023-05-17T06:01:47.903Z,94695.91
2023-05-17T06:04:14.581Z,94696.91
2023-05-17T06:06:41.491Z,94708.31
2023-05-17T06:09:12.210Z,94704.13
2023-05-17T06:11:39.536Z,94707.69
2023-05-17T06:14:06.309Z,94715.16
2023-05-17T06:16:33.068Z,94709.50
2023-05-17T06:19:00.415Z,94708.88
2023-05-17T06:21:27.208Z,94714.88
2023-05-17T06:23:53.878Z,94715.78
2023-05-17T06:26:20.721Z,94697.38
2023-05-17T06:28:47.392Z,94714.41
2023-05-17T06:31:14.125Z,94719.44
2023-05-17T06:33:40.834Z,94718.78
2023-05-17T06:36:07.891Z,94715.59
2023-05-17T06:38:34.596Z,94715.72
2023-05-17T06:41:01.294Z,94717.09
2023-05-17T06:43:28.119Z,94718.38
2023-05-17T06:45:54.849Z,94709.50
2023-05-17T06:48:21.650Z,94716.63
2023-05-17T06:50:48.488Z,94718.56
2023-05-17T06:53:15.398Z,94723.72
2023-05-17T06:55:43.186Z,94721.72
2023-05-17T06:58:10.065Z,94720.31
2023-05-17T07:00:36.994Z,94727.13
2023-05-17T07:03:03.884Z,94719.94
2023-05-17T07:05:31.071Z,94728.44
2023-05-17T07:08:01.057Z,94720.97
2023-05-17T07:10:29.084Z,94719.06
2023-05-17T07:12:55.840Z,94724.63
2023-05-17T07:15:22.590Z,94732.31
2023-05-17T07:17:49.323Z,94727.13
2023-05-17T07:20:16.616Z,94726.47
2023-05-17T07:22:43.683Z,94733.09
2023-05-17T07:25:10.801Z,94731.97
2023-05-17T07:27:37.580Z,94730.88
2023-05-17T07:30:04.873Z,94737.88
2023-05-17T07:32:34.351Z,94732.50
2023-05-17T07:35:02.375Z,94733.22
2023-05-17T07:37:29.104Z,94740.31
2023-05-17T07:39:55.908Z,94728.41
2023-05-17T07:42:23.319Z,94737.06
2023-05-17T07:44:50.140Z,94738.75
2023-05-17T07:47:17.080Z,94732.09
2023-05-17T07:49:43.948Z,94729.97
2023-05-17T07:52:10.648Z,94751.78
2023-05-17T07:54:39.448Z,94742.03
2023-05-17T07:57:08.829Z,94731.84
2023-05-17T07:59:35.700Z,94733.88
2023-05-17T08:02:02.400Z,94731.25
2023-05-17T08:04:29.195Z,94745.47
2023-05-17T08:06:55.988Z,94745.84
2023-05-17T08:09:22.714Z,94736.69
2023-05-17T08:11:49.474Z,94741.00
2023-05-17T08:14:16.825Z,94754.56
2023-05-17T08:16:45.901Z,94748.63
2023-05-17T08:19:14.944Z,94758.53
2023-05-17T08:21:42.768Z,94756.69
2023-05-17T08:24:09.609Z,94747.25
2023-05-17T08:26:36.424Z,94741.41
2023-05-17T08:29:04.811Z,94737.19
2023-05-17T08:31:32.724Z,94755.56
2023-05-17T08:33:59.543Z,94759.28
2023-05-17T08:36:26.345Z,94748.66
2023-05-17T08:38:53.037Z,94744.59
2023-05-17T08:41:20.927Z,94741.44
2023-05-17T08:43:49.296Z,94763.41
2023-05-17T08:46:18.698Z,94748.75
2023-05-17T08:48:46.958Z,94752.22
2023-05-17T08:51:14.944Z,94744.69
2023-05-17T08:53:42.648Z,94750.31
2023-05-17T08:56:11.479Z,94753.03
2023-05-17T08:58:52.366Z,94757.38
2023-05-17T09:01:25.821Z,94759.88
2023-05-17T09:03:54.038Z,94760.59
2023-05-17T09:06:22.386Z,94745.63
2023-05-17T09:08:53.717Z,94754.06
2023-05-17T09:11:29.119Z,94764.63
2023-05-17T09:14:00.293Z,94752.41
2023-05-17T09:16:31.748Z,94757.06
2023-05-17T09:18:59.291Z,94758.13
2023-05-17T09:21:28.621Z,94743.41
2023-05-17T09:24:05.522Z,94762.91
2023-05-17T09:26:44.752Z,94751.13
2023-05-17T09:29:16.331Z,94746.50
2023-05-17T09:31:44.446Z,94758.19
2023-05-17T09:34:11.760Z,94762.56
2023-05-17T09:36:42.749Z,94766.16
2023-05-17T09:39:12.798Z,94764.25
2023-05-17T09:41:46.893Z,94774.25
2023-05-17T09:44:14.711Z,94764.00
2023-05-17T09:46:47.507Z,94771.63
2023-05-17T09:49:16.184Z,94770.84
2023-05-17T09:51:44.459Z,94774.34
2023-05-17T09:54:12.035Z,94771.19
2023-05-17T09:56:39.358Z,94766.19
2023-05-17T09:59:15.665Z,94773.19
2023-05-17T10:01:45.160Z,94770.28
2023-05-17T10:04:13.804Z,94777.63
2023-05-17T10:09:15.955Z,94780.69
2023-05-17T10:11:47.238Z,94789.78
2023-05-17T10:14:35.028Z,94772.94
2023-05-17T10:17:03.428Z,94763.59
2023-05-17T10:19:31.502Z,94760.88
2023-05-17T10:22:10.933Z,94759.84
2023-05-17T10:24:48.041Z,94749.03
2023-05-17T10:27:15.826Z,94764.66
2023-05-17T10:29:44.308Z,94778.16
2023-05-17T10:32:14.292Z,94768.69
2023-05-17T10:34:41.048Z,94759.41
2023-05-17T10:37:08.091Z,94745.47
2023-05-17T10:39:38.335Z,94758.00
2023-05-17T10:42:14.727Z,94776.75
2023-05-17T10:44:43.000Z,94773.50
2023-05-17T10:47:11.725Z,94770.91
2023-05-17T10:49:40.094Z,94764.44
2023-05-17T10:52:17.690Z,94774.13
2023-05-17T10:54:47.841Z,94768.84
2023-05-17T11:00:07.882Z,94774.84
2023-05-17T11:02:39.688Z,94762.91
2023-05-17T11:05:07.861Z,94763.88
2023-05-17T11:07:37.570Z,94752.38
2023-05-17T11:10:17.108Z,94750.63
2023-05-17T11:12:47.019Z,94752.25
2023-05-17T11:15:15.588Z,94744.63
2023-05-17T11:17:54.758Z,94755.38
2023-05-17T11:20:28.293Z,94753.53
2023-05-17T11:23:00.717Z,94745.97
2023-05-17T11:25:31.472Z,94756.28
2023-05-17T11:27:59.062Z,94751.47
2023-05-17T11:30:31.266Z,94744.56
2023-05-17T11:33:25.395Z,94745.97
2023-05-17T11:36:05.235Z,94744.50
2023-05-17T11:38:33.083Z,94736.25
2023-05-17T11:43:49.851Z,94746.69
2023-05-17T11:46:21.747Z,94746.13
2023-05-17T11:48:50.540Z,94734.19
2023-05-17T11:51:20.723Z,94725.53
2023-05-17T11:53:49.969Z,94727.59
2023-05-17T11:56:17.348Z,94733.16
2023-05-17T11:58:45.536Z,94731.50
2023-05-17T12:01:12.280Z,94726.59
2023-05-17T12:03:39.056Z,94729.25
2023-05-17T12:06:09.641Z,94736.94
2023-05-17T12:08:38.699Z,94739.34
2023-05-17T12:11:07.335Z,94736.84
2023-05-17T12:13:36.162Z,94740.22
2023-05-17T12:16:07.449Z,94731.59
2023-05-17T12:18:43.038Z,94734.53
2023-05-17T12:21:13.431Z,94730.63
2023-05-17T12:23:45.004Z,94734.03
2023-05-17T12:26:17.899Z,94750.16
2023-05-17T12:28:56.548Z,94738.56
2023-05-17T12:31:32.639Z,94728.47
2023-05-17T12:34:02.367Z,94725.38
2023-05-17T12:36:31.642Z,94734.09
2023-05-17T12:38:58.503Z,94735.41
2023-05-17T12:41:26.552Z,94730.00
2023-05-17T12:44:06.284Z,94726.88
2023-05-17T12:46:40.451Z,94736.44
2023-05-17T12:49:08.742Z,94732.75
2023-05-17T12:51:43.405Z,94737.44
2023-05-17T12:54:16.138Z,94744.31
2023-05-17T12:56:46.641Z,94744.41
2023-05-17T12:59:18.074Z,94745.44
2023-05-17T13:01:45.604Z,94745.94
2023-05-17T13:04:13.799Z,94749.41
2023-05-17T13:06:49.888Z,94752.00
2023-05-17T13:09:19.786Z,94751.94
2023-05-17T13:11:57.656Z,94747.56
2023-05-17T13:14:33.483Z,94752.06
2023-05-17T13:17:02.038Z,94748.84
2023-05-17T13:19:28.877Z,94743.97
2023-05-17T13:21:55.716Z,94744.34
2023-05-17T13:24:22.482Z,94740.75
2023-05-17T13:26:49.191Z,94748.00
2023-05-17T13:29:17.390Z,94748.22
2023-05-17T13:31:44.309Z,94757.13
2023-05-17T13:34:13.179Z,94762.28
2023-05-17T13:36:39.962Z,94751.38
2023-05-17T13:39:06.629Z,94750.31
2023-05-17T13:41:33.737Z,94751.63
2023-05-17T13:44:00.440Z,94755.59
2023-05-17T13:46:27.251Z,94749.53
2023-05-17T13:48:54.224Z,94741.66
2023-05-17T13:51:21.005Z,94766.47
2023-05-17T13:53:48.381Z,94763.34
2023-05-17T13:56:15.201Z,94769.53
2023-05-17T13:58:42.103Z,94761.66
2023-05-17T14:01:08.848Z,94760.41
2023-05-17T14:03:36.361Z,94755.09
2023-05-17T14:06:04.458Z,94763.50
2023-05-17T14:08:31.146Z,94767.72
2023-05-17T14:10:57.836Z,94763.88
2023-05-17T14:13:24.575Z,94764.91
2023-05-17T14:15:51.236Z,94758.88
2023-05-17T14:18:18.012Z,94750.69
2023-05-17T14:20:47.173Z,94764.00
2023-05-17T14:23:13.844Z,94764.53
2023-05-17T14:25:40.652Z,94761.72
2023-05-17T14:28:07.403Z,94769.75
2023-05-17T14:30:34.104Z,94767.28
2023-05-17T14:33:00.856Z,94771.22
2023-05-17T14:35:27.589Z,94768.88
2023-05-17T14:37:54.282Z,94773.69
2023-05-17T14:40:21.131Z,94770.78
2023-05-17T14:42:47.900Z,94773.25
2023-05-17T14:45:14.752Z,94776.50
2023-05-17T14:47:41.545Z,94763.03
2023-05-17T14:50:08.553Z,94774.19
2023-05-17T14:52:35.302Z,94766.78
2023-05-17T14:55:02.154Z,94772.28
2023-05-17T14:57:28.814Z,94763.78
2023-05-17T14:59:56.367Z,94778.97
2023-05-17T15:02:23.069Z,94772.81
2023-05-17T15:04:49.911Z,94782.91
2023-05-17T15:07:16.825Z,94779.09
2023-05-17T15:09:44.268Z,94778.97
2023-05-17T15:12:14.134Z,94789.28
2023-05-17T15:14:41.062Z,94773.69
2023-05-17T15:17:08.270Z,94777.41
2023-05-17T15:19:35.294Z,94792.34
2023-05-17T15:22:02.139Z,94770.66
2023-05-17T15:24:29.635Z,94779.09
2023-05-17T15:26:56.544Z,94773.88
2023-05-17T15:29:23.310Z,94781.78
2023-05-17T15:31:50.009Z,94779.41
2023-05-17T15:34:16.805Z,94779.22
2023-05-17T15:36:43.462Z,94781.38
2023-05-17T15:39:11.044Z,94785.19
2023-05-17T15:41:37.838Z,94789.13
2023-05-17T15:44:05.590Z,94787.31
2023-05-17T15:46:32.578Z,94784.13
2023-05-17T15:48:59.329Z,94789.06
2023-05-17T15:51:26.338Z,94779.25
2023-05-17T15:53:53.480Z,94786.13
2023-05-17T15:56:23.400Z,94782.16
2023-05-17T15:58:50.679Z,94802.16
2023-05-17T16:01:17.416Z,94790.84
2023-05-17T16:03:44.194Z,94800.00
2023-05-17T16:06:11.033Z,94795.94
2023-05-17T16:08:38.291Z,94796.72
2023-05-17T16:11:06.591Z,94798.44
2023-05-17T16:13:33.345Z,94794.16
2023-05-17T16:16:00.440Z,94796.13
2023-05-17T16:18:27.364Z,94785.63
2023-05-17T16:20:58.916Z,94784.66
2023-05-17T16:23:26.063Z,94790.06
2023-05-17T16:25:54.525Z,94785.63
2023-05-17T16:28:21.733Z,94788.50
2023-05-17T16:30:49.837Z,94781.88
2023-05-17T16:33:16.738Z,94795.16
2023-05-17T16:35:43.692Z,94801.31
2023-05-17T16:38:10.669Z,94798.88
2023-05-17T16:40:38.866Z,94803.13
2023-05-17T16:43:05.755Z,94798.94
2023-05-17T16:45:32.401Z,94795.28
2023-05-17T16:47:59.185Z,94789.78
2023-05-17T16:50:26.133Z,94796.53
2023-05-17T16:52:52.895Z,94804.53
2023-05-17T16:55:19.604Z,94792.91
2023-05-17T16:57:46.466Z,94800.44
2023-05-17T17:00:13.687Z,94784.28
2023-05-17T17:02:40.521Z,94800.72
2023-05-17T17:05:07.706Z,94806.38
2023-05-17T17:07:34.492Z,94806.66
2023-05-17T17:10:01.314Z,94803.31
2023-05-17T17:12:28.081Z,94810.44
2023-05-17T17:14:54.871Z,94807.03
2023-05-17T17:17:21.839Z,94816.56
2023-05-17T17:19:48.537Z,94817.91
2023-05-17T17:22:16.318Z,94806.75
2023-05-17T17:24:43.868Z,94820.81
2023-05-17T17:27:10.547Z,94816.84
2023-05-17T17:29:37.523Z,94808.53
2023-05-17T17:32:05.154Z,94820.66
2023-05-17T17:34:32.007Z,94808.84
2023-05-17T17:36:58.683Z,94818.31
2023-05-17T17:39:25.633Z,94820.53
2023-05-17T17:41:52.276Z,94822.75
2023-05-17T17:44:19.499Z,94815.19
2023-05-17T17:46:46.236Z,94821.50
2023-05-17T17:49:12.915Z,94822.00
2023-05-17T17:51:39.603Z,94820.41
2023-05-17T17:54:07.397Z,94825.47
2023-05-17T17:56:34.351Z,94833.66
2023-05-17T17:59:01.199Z,94847.09
2023-05-17T18:01:29.583Z,94827.19
2023-05-17T18:03:56.564Z,94830.66
2023-05-17T18:06:23.636Z,94837.91
2023-05-17T18:08:50.486Z,94831.59
2023-05-17T18:11:17.307Z,94831.13
2023-05-17T18:13:44.083Z,94826.38
2023-05-17T18:16:10.811Z,94814.69
2023-05-17T18:18:40.703Z,94830.47
2023-05-17T18:21:08.910Z,94808.19
2023-05-17T18:23:35.742Z,94831.25
2023-05-17T18:26:03.046Z,94833.75
2023-05-17T18:28:41.421Z,94833.75
2023-05-17T18:31:09.513Z,94830.75
2023-05-17T18:33:36.418Z,94833.06
2023-05-17T18:36:03.330Z,94840.31
2023-05-17T18:38:30.123Z,94834.00
2023-05-17T18:40:56.788Z,94842.34
2023-05-17T18:43:23.507Z,94843.09
2023-05-17T18:45:51.353Z,94849.66
2023-05-17T18:48:18.251Z,94836.13
2023-05-17T18:50:44.979Z,94848.84
2023-05-17T18:53:13.094Z,94845.94
2023-05-17T18:55:40.014Z,94842.94
2023-05-17T18:58:07.622Z,94837.84
2023-05-17T19:00:34.379Z,94840.22
2023-05-17T19:03:01.198Z,94844.78
2023-05-17T19:05:27.914Z,94850.44
2023-05-17T19:07:54.588Z,94851.53
2023-05-17T19:10:21.741Z,94845.53
2023-05-17T19:12:48.882Z,94843.94
2023-05-17T19:15:16.309Z,94856.84
2023-05-17T19:17:43.324Z,94856.06
2023-05-17T19:20:10.556Z,94856.78
2023-05-17T19:22:37.228Z,94838.63
2023-05-17T19:25:04.674Z,94850.91
2023-05-17T19:27:31.492Z,94853.41
2023-05-17T19:29:58.208Z,94852.41
2023-05-17T19:32:25.184Z,94856.19
2023-05-17T19:34:51.959Z,94858.47
2023-05-17T19:37:19.018Z,94862.56
2023-05-17T19:39:45.877Z,94864.38
2023-05-17T19:42:12.605Z,94854.97
2023-05-17T19:44:39.310Z,94867.13
2023-05-17T19:47:06.332Z,94867.13
2023-05-17T19:49:33.063Z,94853.72
2023-05-17T19:52:01.201Z,94859.38
2023-05-17T19:54:31.356Z,94862.94
2023-05-17T19:56:59.592Z,94852.94
2023-05-17T19:59:26.350Z,94852.34
2023-05-17T20:04:19.923Z,94852.16
2023-05-17T20:06:46.650Z,94847.53
2023-05-17T20:09:13.340Z,94850.22
2023-05-17T20:11:40.179Z,94850.50
2023-05-17T20:14:07.134Z,94837.06
2023-05-17T20:16:34.020Z,94837.06
2023-05-17T20:19:01.150Z,94856.75
2023-05-17T20:21:29.599Z,94855.47
2023-05-17T20:24:01.425Z,94861.13
2023-05-17T20:26:31.949Z,94857.75
2023-05-17T20:28:59.303Z,94854.41
2023-05-17T20:31:26.304Z,94854.22
2023-05-17T20:33:53.369Z,94854.03
2023-05-17T20:36:20.150Z,94854.50
2023-05-17T20:38:46.999Z,94855.69
2023-05-17T20:41:15.954Z,94853.22
2023-05-17T20:43:45.316Z,94851.56
2023-05-17T20:46:13.228Z,94857.28
2023-05-17T20:48:43.011Z,94861.03
2023-05-17T20:51:10.814Z,94858.66
2023-05-17T20:53:38.388Z,94861.94
2023-05-17T20:56:06.994Z,94862.06
2023-05-17T20:58:33.952Z,94866.91
2023-05-17T21:01:01.252Z,94867.78
2023-05-17T21:03:33.410Z,94867.28
2023-05-17T21:06:01.297Z,94862.53
2023-05-17T21:08:28.390Z,94851.66
2023-05-17T21:10:55.911Z,94844.16
2023-05-17T21:13:25.461Z,94856.41
2023-05-17T21:15:54.617Z,94857.09
2023-05-17T21:18:21.649Z,94856.91
2023-05-17T21:20:49.936Z,94868.66
2023-05-17T21:23:17.240Z,94862.53
2023-05-17T21:25:44.500Z,94850.88
2023-05-17T21:28:11.539Z,94858.38
2023-05-17T21:30:38.373Z,94850.56
2023-05-17T21:33:05.629Z,94847.09
2023-05-17T21:35:32.651Z,94862.09
2023-05-17T21:37:59.321Z,94860.22
2023-05-17T21:40:26.334Z,94853.41
2023-05-17T21:42:53.028Z,94854.22
2023-05-17T21:45:19.870Z,94856.38
2023-05-17T21:47:46.739Z,94846.66
2023-05-17T21:50:13.610Z,94839.53
2023-05-17T21:52:40.494Z,94839.75
2023-05-17T21:55:07.800Z,94842.78
2023-05-17T21:57:36.433Z,94845.44
2023-05-17T22:00:08.004Z,94833.69
2023-05-17T22:02:36.001Z,94848.59
2023-05-17T22:05:02.988Z,94846.81
2023-05-17T22:07:29.847Z,94843.41
2023-05-17T22:09:56.619Z,94837.97
2023-05-17T22:12:25.814Z,94846.56
2023-05-17T22:14:56.851Z,94852.25
2023-05-17T22:17:35.026Z,94842.16
2023-05-17T22:20:11.526Z,94844.81
2023-05-17T22:22:38.361Z,94839.72
2023-05-17T22:25:06.826Z,94833.75
2023-05-17T22:27:33.601Z,94838.31
2023-05-17T22:30:00.958Z,94842.25
2023-05-17T22:32:27.742Z,94829.50
2023-05-17T22:34:56.273Z,94841.38
2023-05-17T22:37:23.714Z,94836.31
2023-05-17T22:39:50.585Z,94839.88
2023-05-17T22:42:17.283Z,94826.91
2023-05-17T22:44:44.073Z,94835.69
2023-05-17T22:47:14.734Z,94832.81
2023-05-17T22:49:42.191Z,94826.47
2023-05-17T22:52:11.281Z,94834.69
2023-05-17T22:54:38.631Z,94832.47
2023-05-17T22:57:06.112Z,94837.66
2023-05-17T22:59:33.456Z,94824.47
2023-05-17T23:02:01.833Z,94832.25
2023-05-17T23:04:30.492Z,94825.38
2023-05-17T23:07:03.958Z,94832.59
2023-05-17T23:09:31.078Z,94827.25
2023-05-17T23:12:00.601Z,94827.31
2023-05-17T23:14:27.469Z,94829.13
2023-05-17T23:16:54.409Z,94823.34
2023-05-17T23:19:23.544Z,94816.03
2023-05-17T23:21:50.386Z,94814.16
2023-05-17T23:24:17.620Z,94821.34
2023-05-17T23:26:44.314Z,94809.19
2023-05-17T23:29:12.607Z,94812.91
2023-05-17T23:31:41.074Z,94811.91
2023-05-17T23:34:07.857Z,94818.31
2023-05-17T23:36:34.669Z,94819.38
2023-05-17T23:39:01.427Z,94802.19
2023-05-17T23:41:29.561Z,94799.59
2023-05-17T23:43:57.182Z,94811.03
2023-05-17T23:46:24.161Z,94809.44
2023-05-17T23:48:50.994Z,94809.44
2023-05-17T23:51:19.373Z,94801.50
2023-05-17T23:53:49.083Z,94806.56
2023-05-17T23:56:17.467Z,94802.16
2023-05-17T23:58:45.480Z,94791.00
